Time;durP1;ratioP1;P1;durP2;ratioP2;P2;SDS_P1;SDS_P2;PMS_P1;PMS_P2;Temp;Humidity;BMP_temperature;BMP_pressure;BME280_temperature;BME280_humidity;BME280_pressure;Samples;Min_cycle;Max_cycle;Signal;HPM_P1;HPM_P2
2022/03/08 00:06:27;;;;;;;1.93;1.47;;;;;;;;;;21035105;28;20213;-64
2022/03/08 00:16:29;;;;;;;2.23;1.37;;;;;;;;;;21051878;28;20213;-64
2022/03/08 00:26:30;;;;;;;1.80;1.20;;;;;;;;;;21032808;28;20734;-64
2022/03/08 00:36:32;;;;;;;2.13;1.30;;;2.70;99.90;;;;;;21032986;28;20584;-64
2022/03/08 00:46:34;;;;;;;1.37;1.00;;;;;;;;;;21049083;28;20208;-64
2022/03/08 00:56:36;;;;;;;1.00;0.90;;;;;;;;;;21029491;28;20780;-64
2022/03/08 01:06:40;;;;;;;3.37;1.20;;;2.60;99.90;;;;;;21048305;28;20223;-64
2022/03/08 01:16:42;;;;;;;1.60;0.83;;;;;;;;;;21029252;28;20208;-63
2022/03/08 01:26:44;;;;;;;1.40;1.00;;;;;;;;;;21046108;28;20221;-63
2022/03/08 01:36:46;;;;;;;1.40;1.13;;;;;;;;;;21061312;28;20216;-64
2022/03/08 01:46:48;;;;;;;1.63;1.20;;;;;;;;;;21060965;28;20273;-64
2022/03/08 01:56:49;;;;;;;7.37;1.37;;;;;;;;;;21059924;28;20737;-64
2022/03/08 02:06:51;;;;;;;1.00;0.83;;;;;;;;;;21043894;28;20744;-64
2022/03/08 02:16:53;;;;;;;1.30;0.90;;;2.00;99.90;;;;;;21042356;28;20217;-64
2022/03/08 02:26:55;;;;;;;1.17;1.07;;;;;;;;;;21043349;28;20220;-63
2022/03/08 02:37:04;;;;;;;1.27;1.13;;;;;;;;;;21040648;28;20220;-64
2022/03/08 02:47:06;;;;;;;0.90;0.83;;;1.90;99.90;;;;;;20578802;22;20256;-81
2022/03/08 02:57:07;;;;;;;1.10;1.00;;;;;;;;;;20551880;28;20205;-80
2022/03/08 03:07:09;;;;;;;1.60;1.23;;;;;;;;;;20476796;28;20707;-82
2022/03/08 03:17:11;;;;;;;2.20;1.50;;;;;;;;;;20553778;28;20259;-81
2022/03/08 03:27:13;;;;;;;2.67;1.13;;;;;;;;;;20495707;28;20224;-81
2022/03/08 03:37:15;;;;;;;1.37;1.17;;;;;;;;;;20537008;28;20251;-81
2022/03/08 03:47:17;;;;;;;2.23;1.20;;;;;;;;;;20540402;28;20217;-81
2022/03/08 03:57:18;;;;;;;1.67;1.30;;;;;;;;;;20446147;28;20746;-81
2022/03/08 04:07:20;;;;;;;1.17;0.97;;;;;;;;;;20540324;28;20278;-80
2022/03/08 04:17:22;;;;;;;1.30;1.07;;;;;;;;;;20534590;28;20221;-81
2022/03/08 04:27:24;;;;;;;1.43;1.00;;;;;;;;;;20524635;28;20289;-80
2022/03/08 04:37:26;;;;;;;1.57;1.13;;;;;;;;;;20505174;28;20283;-79
2022/03/08 04:47:28;;;;;;;1.30;1.17;;;;;;;;;;20495248;28;20241;-79
2022/03/08 04:57:30;;;;;;;1.63;1.40;;;;;;;;;;20486868;28;20267;-79
2022/03/08 05:07:32;;;;;;;4.50;1.13;;;;;;;;;;20535160;28;20630;-78
2022/03/08 05:17:35;;;;;;;1.40;1.10;;;;;;;;;;20543434;28;20693;-78
2022/03/08 05:27:37;;;;;;;2.23;1.93;;;1.30;99.90;;;;;;20554599;28;20267;-78
2022/03/08 05:37:39;;;;;;;2.40;1.63;;;;;;;;;;20537487;28;20225;-79
2022/03/08 05:47:41;;;;;;;1.77;1.00;;;;;;;;;;20546271;28;20305;-78
2022/03/08 05:57:43;;;;;;;1.73;1.20;;;;;;;;;;20521317;28;20286;-78
2022/03/08 06:07:44;;;;;;;1.60;1.30;;;;;;;;;;20539421;28;20282;-78
2022/03/08 06:17:46;;;;;;;3.57;1.57;;;;;;;;;;20503439;28;20240;-79
2022/03/08 06:27:48;;;;;;;2.03;1.50;;;;;;;;;;20457543;28;20283;-78
2022/03/08 06:37:50;;;;;;;1.17;0.93;;;;;;;;;;20531952;28;20303;-78
2022/03/08 06:47:51;;;;;;;1.47;1.33;;;;;;;;;;20546085;28;20217;-80
2022/03/08 06:57:53;;;;;;;5.30;1.33;;;;;;;;;;20575914;28;20224;-80
2022/03/08 07:07:55;;;;;;;1.83;1.23;;;;;;;;;;20582570;28;20852;-79
2022/03/08 07:17:57;;;;;;;2.43;1.60;;;;;;;;;;20556639;28;20569;-85
2022/03/08 07:27:59;;;;;;;1.77;1.33;;;;;;;;;;21141107;28;20777;-86
2022/03/08 07:38:00;;;;;;;1.43;1.13;;;;;;;;;;21094872;28;20285;-81
2022/03/08 07:48:04;;;;;;;2.17;1.50;;;;;;;;;;21159410;28;20284;-80
2022/03/08 07:58:11;;;;;;;1.77;1.20;;;;;;;;;;21108630;28;20223;-81
2022/03/08 08:08:13;;;;;;;1.10;0.80;;;;;;;;;;21126543;28;20237;-80
2022/03/08 08:18:16;;;;;;;1.23;0.90;;;;;;;;;;21123025;28;20288;-81
2022/03/08 08:28:17;;;;;;;1.37;1.17;;;;;;;;;;21140775;28;20782;-81
2022/03/08 08:38:19;;;;;;;1.47;1.37;;;;;;;;;;21106866;28;20230;-81
2022/03/08 08:48:22;;;;;;;2.70;1.30;;;4.20;99.90;;;;;;21148085;28;20223;-80
2022/03/08 08:58:23;;;;;;;1.13;1.03;;;;;;;;;;21170340;28;20288;-80
2022/03/08 09:08:25;;;;;;;1.90;0.97;;;;;;;;;;21136272;28;20236;-80
2022/03/08 09:18:27;;;;;;;1.70;1.17;;;;;;;;;;21106834;28;20770;-79
2022/03/08 09:28:28;;;;;;;1.80;1.30;;;;;;;;;;21138930;28;20292;-80
2022/03/08 09:38:31;;;;;;;1.57;1.20;;;;;;;;;;21170378;27;20224;-81
2022/03/08 09:48:32;;;;;;;1.30;1.07;;;;;;;;;;21119076;28;20215;-80
2022/03/08 09:58:35;;;;;;;1.03;0.63;;;;;;;;;;21183886;27;20268;-80
2022/03/08 10:08:37;;;;;;;1.80;1.13;;;;;;;;;;21220346;27;20280;-81
2022/03/08 10:18:40;;;;;;;1.20;1.00;;;;;;;;;;21286589;27;20305;-79
2022/03/08 10:28:47;;;;;;;1.67;0.90;;;6.80;99.90;;;;;;21183148;27;20257;-79
2022/03/08 10:39:04;;;;;;;1.20;0.80;;;;;;;;;;21155516;27;20704;-79
2022/03/08 10:49:14;;;;;;;2.10;1.53;;;;;;;;;;21131029;28;20701;-78
2022/03/08 10:59:18;;;;;;;1.33;0.93;;;;;;;;;;21128566;28;20211;-79
2022/03/08 11:09:21;;;;;;;1.10;0.80;;;7.30;99.90;;;;;;21146657;28;20227;-79
2022/03/08 11:19:26;;;;;;;0.50;0.50;;;7.60;99.90;;;;;;21144872;28;20204;-79
2022/03/08 11:29:29;;;;;;;1.87;1.20;;;;;;;;;;21163193;28;20224;-80
2022/03/08 11:39:31;;;;;;;1.47;0.93;;;7.90;99.90;;;;;;21161813;28;20223;-79
2022/03/08 11:49:39;;;;;;;1.80;1.10;;;;;;;;;;21103404;28;20216;-79
2022/03/08 12:00:01;;;;;;;1.63;1.23;;;;;;;;;;21052813;28;20621;-78
2022/03/08 12:10:24;;;;;;;1.00;0.80;;;;;;;;;;21040072;28;20221;-79
2022/03/08 12:20:26;;;;;;;1.77;1.00;;;;;;;;;;21056632;28;20574;-79
2022/03/08 12:30:41;;;;;;;2.23;1.27;;;9.00;99.90;;;;;;21147237;28;20239;-79
2022/03/08 12:40:49;;;;;;;1.53;0.80;;;9.00;99.90;;;;;;20988077;28;20218;-80
2022/03/08 12:50:53;;;;;;;8.80;2.43;;;;;;;;;;21122664;28;20257;-79
2022/03/08 13:00:57;;;;;;;1.17;0.63;;;9.60;99.90;;;;;;21138320;28;20273;-80
2022/03/08 13:11:00;;;;;;;1.10;0.67;;;;;;;;;;21156455;28;20231;-79
2022/03/08 13:21:01;;;;;;;1.83;0.97;;;;;;;;;;21162111;28;20284;-81
2022/03/08 13:31:06;;;;;;;1.23;0.90;;;10.20;99.90;;;;;;21119369;28;20257;-80
2022/03/08 13:41:12;;;;;;;0.93;0.70;;;;;;;;;;21085233;27;20228;-80
2022/03/08 13:51:14;;;;;;;1.53;0.67;;;;;;;;;;21119096;28;20243;-81
2022/03/08 14:01:16;;;;;;;7.57;1.00;;;;;;;;;;21169349;28;20564;-80
2022/03/08 14:11:20;;;;;;;0.80;0.60;;;10.20;99.90;;;;;;21110078;28;20228;-80
2022/03/08 14:21:30;;;;;;;1.30;0.77;;;;;;;;;;21064077;28;20261;-81
2022/03/08 14:31:33;;;;;;;1.33;0.90;;;;;;;;;;21133154;28;20288;-80
2022/03/08 14:41:35;;;;;;;0.90;0.43;;;;;;;;;;21097878;28;20231;-81
2022/03/08 14:51:36;;;;;;;0.97;0.70;;;;;;;;;;21147306;28;20242;-81
2022/03/08 15:01:38;;;;;;;1.43;0.63;;;;;;;;;;21129756;28;20237;-81
2022/03/08 15:11:41;;;;;;;1.37;0.60;;;;;;;;;;21007783;27;20838;-80
2022/03/08 15:21:46;;;;;;;0.43;0.40;;;9.30;99.90;;;;;;20805023;28;20220;-81
2022/03/08 15:31:48;;;;;;;1.10;0.70;;;;;;;;;;20738976;28;20227;-81
2022/03/08 15:41:50;;;;;;;0.53;0.43;;;;;;;;;;20927851;28;20630;-80
2022/03/08 15:52:17;;;;;;;1.33;0.60;;;8.80;93.10;;;;;;21110262;28;20244;-80
2022/03/08 16:02:18;;;;;;;1.40;0.60;;;;;;;;;;21143260;28;20263;-81
2022/03/08 16:12:20;;;;;;;0.33;0.33;;;;;;;;;;21149924;28;20249;-80
2022/03/08 16:22:23;;;;;;;0.87;0.60;;;;;;;;;;21147545;28;20221;-80
2022/03/08 16:32:25;;;;;;;0.67;0.50;;;;;;;;;;21117349;28;20288;-79
2022/03/08 16:42:26;;;;;;;0.77;0.50;;;;;;;;;;21108532;28;20227;-79
2022/03/08 16:52:29;;;;;;;1.97;0.60;;;;;;;;;;21150485;28;20257;-79
2022/03/08 17:02:31;;;;;;;1.67;1.00;;;;;;;;;;21147957;28;20685;-79
2022/03/08 17:12:32;;;;;;;1.63;0.83;;;;;;;;;;20806635;28;20239;-79
2022/03/08 17:22:34;;;;;;;0.83;0.63;;;;;;;;;;20803987;28;20739;-79
2022/03/08 17:32:36;;;;;;;1.47;0.80;;;;;;;;;;20890415;27;20630;-80
2022/03/08 17:42:37;;;;;;;1.43;0.97;;;;;;;;;;21120573;28;20614;-80
2022/03/08 17:52:39;;;;;;;2.80;1.30;;;;;;;;;;21068633;28;20261;-79
2022/03/08 18:02:41;;;;;;;3.83;1.70;;;;;;;;;;21135902;28;20692;-79
2022/03/08 18:12:43;;;;;;;4.23;1.73;;;;;;;;;;20888611;28;20944;-83
2022/03/08 18:22:45;;;;;;;3.90;1.63;;;;;;;;;;21126003;28;20211;-82
2022/03/08 18:32:47;;;;;;;2.23;1.40;;;;;;;;;;21101699;27;20307;-82
2022/03/08 18:42:48;;;;;;;4.10;2.17;;;;;;;;;;21043793;28;20240;-81
2022/03/08 18:52:50;;;;;;;1.87;1.20;;;;;;;;;;21000928;28;20721;-81
2022/03/08 19:02:52;;;;;;;2.80;1.60;;;;;;;;;;21070815;28;20233;-82
2022/03/08 19:12:54;;;;;;;2.33;1.33;;;;;;;;;;21003665;28;20236;-81
2022/03/08 19:22:56;;;;;;;2.73;1.77;;;;;;;;;;21068287;28;20265;-82
2022/03/08 19:32:58;;;;;;;2.87;1.47;;;;;;;;;;21032526;28;20232;-82
2022/03/08 19:42:59;;;;;;;3.33;1.83;;;;;;;;;;21053362;28;20253;-81
2022/03/08 19:53:02;;;;;;;2.67;1.63;;;;;;;;;;21135506;28;20227;-81
2022/03/08 20:03:06;;;;;;;2.10;1.40;;;;;;;;;;21025303;28;20393;-81
2022/03/08 20:13:12;;;;;;;2.07;1.33;;;;;;;;;;20794198;28;20824;-81
2022/03/08 20:23:14;;;;;;;3.00;1.90;;;;;;;;;;20925739;28;20215;-82
2022/03/08 20:33:16;;;;;;;2.90;2.03;;;;;;;;;;20776198;28;20570;-82
2022/03/08 20:43:18;;;;;;;2.47;1.87;;;;;;;;;;20931696;28;20231;-82
2022/03/08 20:53:21;;;;;;;2.83;1.80;;;;;;;;;;21123628;28;20243;-83
2022/03/08 21:03:22;;;;;;;2.60;1.60;;;;;;;;;;21169405;27;20216;-83
2022/03/08 21:13:25;;;;;;;2.90;1.73;;;;;;;;;;21116337;28;20232;-83
2022/03/08 21:23:27;;;;;;;2.97;2.20;;;;;;;;;;21149574;28;20304;-81
2022/03/08 21:33:30;;;;;;;2.67;1.33;;;;;;;;;;21148116;28;20224;-83
2022/03/08 21:43:31;;;;;;;2.43;1.30;;;;;;;;;;21145170;28;20610;-84
2022/03/08 21:53:34;;;;;;;2.60;1.87;;;;;;;;;;21059153;28;20286;-84
2022/03/08 22:03:35;;;;;;;2.73;1.50;;;;;;;;;;21046965;28;20225;-84
2022/03/08 22:13:37;;;;;;;2.53;1.57;;;;;;;;;;21132721;28;20273;-84
2022/03/08 22:23:39;;;;;;;2.67;1.80;;;;;;;;;;21150193;28;20216;-82
2022/03/08 22:33:40;;;;;;;1.93;1.30;;;;;;;;;;21150728;28;20249;-81
2022/03/08 22:43:42;;;;;;;3.00;1.77;;;;;;;;;;21114459;28;20288;-82
2022/03/08 22:53:44;;;;;;;1.90;1.23;;;3.60;99.90;;;;;;21113354;28;20232;-82
2022/03/08 23:03:46;;;;;;;2.20;1.60;;;;;;;;;;21129719;28;20250;-82
2022/03/08 23:13:48;;;;;;;2.33;1.40;;;;;;;;;;21129505;28;20227;-82
2022/03/08 23:23:50;;;;;;;3.40;1.63;;;;;;;;;;21112036;28;20211;-81
2022/03/08 23:33:51;;;;;;;2.63;1.40;;;;;;;;;;21111035;28;20295;-81
2022/03/08 23:43:53;;;;;;;1.23;1.03;;;;;;;;;;21126496;28;20300;-81
2022/03/08 23:53:55;;;;;;;2.57;1.73;;;;;;;;;;21108667;28;20216;-81
